Time;durP1;ratioP1;P1;durP2;ratioP2;P2;SDS_P1;SDS_P2;PMS_P1;PMS_P2;Temp;Humidity;BMP_temperature;BMP_pressure;BME280_temperature;BME280_humidity;BME280_pressure;Samples;Min_cycle;Max_cycle;Signal;HPM_P1;HPM_P2
2023/08/01 00:00:34;;;;;;;3.83;2.00;;;20.10;99.90;;;;;;5031309;28;20107;-42
2023/08/01 00:03:00;;;;;;;3.22;2.03;;;20.10;99.90;;;;;;5031444;28;20397;-40
2023/08/01 00:05:25;;;;;;;3.33;2.10;;;20.10;99.90;;;;;;5031527;28;20021;-39
2023/08/01 00:07:53;;;;;;;2.70;1.83;;;20.10;99.90;;;;;;5031314;28;20192;-41
2023/08/01 00:10:18;;;;;;;3.40;1.90;;;20.10;99.90;;;;;;5031355;28;20060;-42
2023/08/01 00:12:44;;;;;;;5.00;1.90;;;20.10;99.90;;;;;;5031511;28;20061;-40
2023/08/01 00:15:10;;;;;;;3.08;2.00;;;20.10;99.90;;;;;;5031446;28;20021;-41
2023/08/01 00:17:35;;;;;;;2.10;1.70;;;20.10;99.90;;;;;;5031387;28;20038;-41
2023/08/01 00:20:02;;;;;;;3.53;2.22;;;20.10;99.90;;;;;;5031441;28;20036;-41
2023/08/01 00:22:28;;;;;;;2.08;1.73;;;20.10;99.90;;;;;;5031131;28;20022;-41
2023/08/01 00:24:53;;;;;;;2.53;2.05;;;20.00;99.90;;;;;;5031273;28;20080;-41
2023/08/01 00:27:19;;;;;;;2.83;1.60;;;20.10;99.90;;;;;;5031270;28;20075;-42
2023/08/01 00:29:45;;;;;;;3.58;2.00;;;20.00;99.90;;;;;;5030841;28;20034;-39
2023/08/01 00:32:11;;;;;;;2.47;1.90;;;20.10;99.90;;;;;;5031193;28;20034;-42
2023/08/01 00:34:37;;;;;;;3.17;2.00;;;20.00;99.90;;;;;;5031213;28;20098;-41
2023/08/01 00:37:03;;;;;;;2.22;1.58;;;20.00;99.90;;;;;;5031118;28;20030;-42
2023/08/01 00:39:29;;;;;;;3.22;1.95;;;20.10;99.90;;;;;;5030676;28;20530;-40
2023/08/01 00:41:55;;;;;;;3.83;2.00;;;20.00;99.90;;;;;;5031023;28;20065;-41
2023/08/01 00:44:20;;;;;;;2.28;1.65;;;20.10;99.90;;;;;;5033034;28;20026;-41
2023/08/01 00:46:46;;;;;;;3.65;2.15;;;20.10;99.90;;;;;;5035146;28;20033;-43
2023/08/01 00:49:12;;;;;;;4.55;2.00;;;20.00;99.90;;;;;;5034839;28;20025;-41
2023/08/01 00:51:38;;;;;;;3.05;2.13;;;20.00;99.90;;;;;;5035100;28;20032;-43
2023/08/01 00:54:04;;;;;;;2.67;2.00;;;20.10;99.90;;;;;;5034970;28;20037;-43
2023/08/01 00:56:29;;;;;;;2.22;1.90;;;20.00;99.90;;;;;;5035165;28;20084;-40
2023/08/01 00:58:55;;;;;;;2.35;1.90;;;20.00;99.90;;;;;;5034628;28;20064;-42
2023/08/01 01:01:21;;;;;;;3.30;2.15;;;20.00;99.90;;;;;;5034723;28;20040;-40
2023/08/01 01:03:46;;;;;;;2.85;1.90;;;20.10;99.90;;;;;;5034855;28;20033;-41
2023/08/01 01:06:37;;;;;;;2.92;1.77;;;20.00;99.90;;;;;;5034762;28;20022;-43
2023/08/01 01:09:13;;;;;;;2.42;1.77;;;20.10;99.90;;;;;;5034483;28;20042;-40
2023/08/01 01:11:39;;;;;;;3.80;2.28;;;20.00;99.90;;;;;;5034803;28;20056;-43
2023/08/01 01:14:04;;;;;;;3.20;2.20;;;20.00;99.90;;;;;;5034684;28;20037;-44
2023/08/01 01:16:30;;;;;;;3.15;2.13;;;20.00;99.90;;;;;;5034715;28;20034;-41
2023/08/01 01:18:56;;;;;;;3.20;2.20;;;20.00;99.90;;;;;;5034215;28;20415;-43
2023/08/01 01:21:21;;;;;;;2.92;1.92;;;20.00;99.90;;;;;;5034435;28;20033;-41
2023/08/01 01:23:48;;;;;;;3.53;2.20;;;20.00;99.90;;;;;;5017478;28;20477;-39
2023/08/01 01:26:20;;;;;;;2.83;2.10;;;20.00;99.90;;;;;;5034471;28;20389;-41
2023/08/01 01:28:46;;;;;;;3.78;2.40;;;20.00;99.90;;;;;;5034276;28;20029;-43
2023/08/01 01:31:13;;;;;;;4.32;2.05;;;20.00;99.90;;;;;;5034299;28;20087;-42
2023/08/01 01:33:38;;;;;;;3.45;1.80;;;20.00;99.90;;;;;;5034267;28;20037;-42
2023/08/01 01:36:04;;;;;;;3.05;2.15;;;20.00;99.90;;;;;;5034252;28;20021;-42
2023/08/01 01:38:30;;;;;;;5.03;2.38;;;20.00;99.90;;;;;;5034226;28;20621;-44
2023/08/01 01:40:55;;;;;;;2.90;1.90;;;20.00;99.90;;;;;;5033907;28;20068;-40
2023/08/01 01:43:21;;;;;;;3.53;1.85;;;20.00;99.90;;;;;;5034055;28;20234;-41
2023/08/01 01:45:47;;;;;;;2.60;2.17;;;20.00;99.90;;;;;;5034132;28;20028;-44
2023/08/01 01:48:12;;;;;;;3.50;2.25;;;20.00;99.90;;;;;;5033950;28;20033;-45
2023/08/01 01:50:38;;;;;;;4.72;2.33;;;20.00;99.90;;;;;;5033794;28;20060;-42
2023/08/01 01:53:03;;;;;;;3.47;2.13;;;20.00;99.90;;;;;;5033891;28;20057;-41
2023/08/01 01:55:29;;;;;;;3.80;2.03;;;20.00;99.90;;;;;;5032545;28;20127;-41
2023/08/01 01:57:55;;;;;;;4.28;2.20;;;20.00;99.90;;;;;;5033762;28;20033;-41
2023/08/01 02:00:20;;;;;;;3.25;2.00;;;20.00;99.90;;;;;;5033483;28;20032;-42
2023/08/01 02:02:46;;;;;;;2.47;1.83;;;20.00;99.90;;;;;;5033691;28;20560;-42
2023/08/01 02:05:11;;;;;;;2.78;2.22;;;20.00;99.90;;;;;;5033735;28;20036;-42
2023/08/01 02:07:37;;;;;;;3.60;2.35;;;20.00;99.90;;;;;;5033659;28;20500;-40
2023/08/01 02:10:03;;;;;;;2.85;2.00;;;20.00;99.90;;;;;;5033638;28;20407;-44
2023/08/01 02:12:31;;;;;;;3.28;2.28;;;20.00;99.90;;;;;;5033544;28;20029;-40
2023/08/01 02:14:58;;;;;;;3.13;1.95;;;20.00;99.90;;;;;;5033457;28;20056;-42
2023/08/01 02:17:24;;;;;;;3.25;2.38;;;20.00;99.90;;;;;;5033573;28;20040;-41
2023/08/01 02:19:50;;;;;;;3.75;2.13;;;20.00;99.90;;;;;;5033057;28;20026;-42
2023/08/01 02:22:15;;;;;;;3.03;2.25;;;20.00;99.90;;;;;;5033619;28;20026;-44
2023/08/01 02:24:41;;;;;;;3.30;2.25;;;20.00;99.90;;;;;;5015569;28;20473;-42
2023/08/01 02:27:07;;;;;;;3.38;2.08;;;20.00;99.90;;;;;;5033243;28;20124;-41
2023/08/01 02:29:32;;;;;;;4.88;2.38;;;20.00;99.90;;;;;;5032906;28;20030;-41
2023/08/01 02:31:58;;;;;;;2.47;2.00;;;20.00;99.90;;;;;;5033258;28;20061;-41
2023/08/01 02:34:23;;;;;;;2.83;2.28;;;20.00;99.90;;;;;;5033372;28;20031;-42
2023/08/01 02:36:49;;;;;;;3.08;2.08;;;20.00;99.90;;;;;;5033200;28;20424;-41
2023/08/01 02:39:15;;;;;;;3.88;2.22;;;20.00;99.90;;;;;;5015065;28;20033;-40
2023/08/01 02:41:40;;;;;;;3.05;2.50;;;20.00;99.90;;;;;;5033028;28;20029;-41
2023/08/01 02:44:06;;;;;;;2.67;2.00;;;20.00;99.90;;;;;;5033024;28;20021;-43
2023/08/01 02:46:31;;;;;;;3.00;2.08;;;20.00;99.90;;;;;;5032955;28;20030;-40
2023/08/01 02:48:57;;;;;;;3.00;2.10;;;20.00;99.90;;;;;;5032756;28;20441;-41
2023/08/01 02:51:23;;;;;;;2.60;2.13;;;20.00;99.90;;;;;;5033103;28;20033;-40
2023/08/01 02:53:48;;;;;;;2.92;2.10;;;20.00;99.90;;;;;;5032884;28;20057;-41
2023/08/01 02:56:14;;;;;;;2.35;1.92;;;20.00;99.90;;;;;;5032768;28;20147;-43
2023/08/01 02:58:39;;;;;;;2.92;2.00;;;20.00;99.90;;;;;;5032557;28;20385;-45
2023/08/01 03:01:09;;;;;;;2.60;2.03;;;20.00;99.90;;;;;;5032608;28;20032;-40
2023/08/01 03:03:36;;;;;;;3.22;2.00;;;20.00;99.90;;;;;;5032616;28;20468;-43
2023/08/01 03:06:02;;;;;;;2.95;2.30;;;20.00;99.90;;;;;;5032376;28;20156;-41
2023/08/01 03:08:27;;;;;;;3.92;2.08;;;20.00;99.90;;;;;;5032325;28;20112;-41
2023/08/01 03:10:56;;;;;;;3.50;2.20;;;20.00;99.90;;;;;;5032352;28;20026;-40
2023/08/01 03:13:22;;;;;;;2.38;1.98;;;20.00;99.90;;;;;;5032268;28;20029;-41
2023/08/01 03:15:48;;;;;;;2.50;1.90;;;20.00;99.90;;;;;;5032637;28;20033;-42
2023/08/01 03:18:13;;;;;;;3.08;2.25;;;20.00;99.90;;;;;;5032406;28;20489;-40
2023/08/01 03:20:39;;;;;;;2.65;1.92;;;20.00;99.90;;;;;;5032066;28;20017;-42
2023/08/01 03:23:05;;;;;;;4.13;2.20;;;20.00;99.90;;;;;;5032132;28;20033;-42
2023/08/01 03:25:30;;;;;;;3.03;2.08;;;20.00;99.90;;;;;;5032240;28;20018;-39
2023/08/01 03:27:56;;;;;;;3.35;2.40;;;20.00;99.90;;;;;;5031973;28;20505;-39
2023/08/01 03:30:22;;;;;;;3.83;2.17;;;19.90;99.90;;;;;;5031811;28;20057;-41
2023/08/01 03:32:48;;;;;;;3.58;2.20;;;19.90;99.90;;;;;;5032301;28;20025;-41
2023/08/01 03:35:14;;;;;;;3.65;2.20;;;20.00;99.90;;;;;;5032014;28;20396;-42
2023/08/01 03:37:40;;;;;;;2.95;2.08;;;19.90;99.90;;;;;;5031987;28;20021;-44
2023/08/01 03:40:09;;;;;;;3.33;2.28;;;19.90;99.90;;;;;;5031611;28;20033;-42
2023/08/01 03:42:35;;;;;;;4.25;2.30;;;19.90;99.90;;;;;;5031700;28;20021;-42
2023/08/01 03:45:00;;;;;;;3.17;2.10;;;19.90;99.90;;;;;;5031933;28;20030;-39
2023/08/01 03:47:26;;;;;;;2.75;2.25;;;19.90;99.90;;;;;;5031864;28;20071;-41
2023/08/01 03:49:52;;;;;;;4.50;2.33;;;19.90;99.90;;;;;;5031489;28;20401;-42
2023/08/01 03:52:17;;;;;;;3.65;2.25;;;19.90;99.90;;;;;;5031788;28;20112;-43
2023/08/01 03:54:43;;;;;;;3.83;2.35;;;19.90;99.90;;;;;;5031717;28;20136;-43
2023/08/01 03:57:09;;;;;;;3.72;2.30;;;19.90;99.90;;;;;;5031627;28;20579;-40
2023/08/01 03:59:34;;;;;;;2.97;2.00;;;19.90;99.90;;;;;;5031505;28;20034;-42
2023/08/01 04:02:00;;;;;;;2.83;2.08;;;19.90;99.90;;;;;;5031798;28;20026;-45
2023/08/01 04:04:25;;;;;;;3.72;2.10;;;19.90;99.90;;;;;;5031564;28;20081;-41
2023/08/01 04:06:51;;;;;;;3.65;2.40;;;19.90;99.90;;;;;;5031519;28;20469;-41
2023/08/01 04:09:17;;;;;;;2.95;2.10;;;19.90;99.90;;;;;;5031132;28;20021;-41
2023/08/01 04:11:42;;;;;;;3.55;2.35;;;20.00;99.90;;;;;;5031324;28;20026;-39
2023/08/01 04:14:08;;;;;;;4.35;2.25;;;19.90;99.90;;;;;;5031413;28;20152;-44
2023/08/01 04:16:34;;;;;;;3.00;2.33;;;20.00;99.90;;;;;;5031311;28;20477;-43
2023/08/01 04:19:00;;;;;;;3.75;2.42;;;19.90;99.90;;;;;;5030274;28;20068;-41
2023/08/01 04:21:25;;;;;;;2.97;2.15;;;19.90;99.90;;;;;;5031356;28;20033;-40
2023/08/01 04:23:51;;;;;;;5.68;2.90;;;19.90;99.90;;;;;;5031253;28;20104;-40
2023/08/01 04:26:16;;;;;;;3.13;2.15;;;19.90;99.90;;;;;;5031140;28;20370;-40
2023/08/01 04:28:42;;;;;;;3.55;2.30;;;19.90;99.90;;;;;;5031019;28;20025;-41
2023/08/01 04:31:09;;;;;;;5.47;2.58;;;19.90;99.90;;;;;;5031217;28;20068;-41
2023/08/01 04:33:35;;;;;;;5.00;2.75;;;19.90;99.90;;;;;;5031147;28;20057;-43
2023/08/01 04:36:01;;;;;;;3.85;2.60;;;19.90;99.90;;;;;;5031129;28;20075;-41
2023/08/01 04:38:27;;;;;;;5.80;2.58;;;19.90;99.90;;;;;;5031061;28;20441;-42
2023/08/01 04:40:52;;;;;;;4.60;2.40;;;19.90;99.90;;;;;;5030719;28;20060;-41
2023/08/01 04:43:18;;;;;;;4.00;2.45;;;19.90;99.90;;;;;;5031102;28;20025;-41
2023/08/01 04:45:44;;;;;;;5.78;2.30;;;19.90;99.90;;;;;;5031057;28;20025;-41
2023/08/01 04:48:09;;;;;;;3.38;2.58;;;19.90;99.90;;;;;;5031050;28;20025;-40
2023/08/01 04:50:35;;;;;;;2.97;2.25;;;19.90;99.90;;;;;;5030978;28;20048;-40
2023/08/01 04:53:00;;;;;;;3.45;2.58;;;19.90;99.90;;;;;;5031033;28;20036;-43
2023/08/01 04:55:26;;;;;;;3.88;2.40;;;19.90;99.90;;;;;;5030902;28;20029;-40
2023/08/01 04:57:51;;;;;;;4.47;2.20;;;19.90;99.90;;;;;;5030941;28;20033;-42
2023/08/01 05:00:17;;;;;;;2.72;2.03;;;19.90;99.90;;;;;;5030778;28;20533;-42
2023/08/01 05:02:43;;;;;;;4.32;2.72;;;19.90;99.90;;;;;;5030925;28;20029;-41
2023/08/01 05:05:08;;;;;;;4.90;2.38;;;19.90;99.90;;;;;;5030970;28;20194;-40
2023/08/01 05:07:34;;;;;;;6.90;2.90;;;19.90;99.90;;;;;;5030948;28;20025;-40
2023/08/01 05:09:59;;;;;;;4.03;2.47;;;19.80;99.90;;;;;;5030497;28;20026;-42
2023/08/01 05:12:25;;;;;;;4.97;2.90;;;19.90;99.90;;;;;;5030831;28;20464;-39
2023/08/01 05:14:50;;;;;;;4.88;2.92;;;19.90;99.90;;;;;;5030848;28;20026;-39
2023/08/01 05:17:16;;;;;;;4.90;2.30;;;19.90;99.90;;;;;;5030926;28;20028;-42
2023/08/01 05:19:42;;;;;;;4.60;2.20;;;19.80;99.90;;;;;;5030420;28;20076;-42
2023/08/01 05:22:07;;;;;;;4.35;2.30;;;19.90;99.90;;;;;;5030679;28;20025;-42
2023/08/01 05:24:33;;;;;;;5.32;2.78;;;19.80;99.90;;;;;;5030526;28;20029;-41
2023/08/01 05:26:58;;;;;;;3.50;2.50;;;19.90;99.90;;;;;;5030914;28;20048;-41
2023/08/01 05:29:24;;;;;;;4.30;2.40;;;19.90;99.90;;;;;;5030773;28;20026;-41
2023/08/01 05:31:50;;;;;;;4.82;2.60;;;19.90;99.90;;;;;;5034370;28;20037;-41
2023/08/01 05:34:15;;;;;;;4.88;2.88;;;19.90;99.90;;;;;;5034336;28;20100;-40
2023/08/01 05:36:41;;;;;;;3.95;2.45;;;19.80;99.90;;;;;;5034284;28;20388;-42
2023/08/01 05:39:07;;;;;;;4.80;2.88;;;19.80;99.90;;;;;;5033879;28;20278;-42
2023/08/01 05:41:33;;;;;;;3.72;2.35;;;19.80;99.90;;;;;;5034079;28;20507;-40
2023/08/01 05:43:58;;;;;;;4.25;2.53;;;19.90;99.90;;;;;;5034161;28;20053;-41
2023/08/01 05:46:24;;;;;;;4.05;2.75;;;19.80;99.90;;;;;;5016352;28;20017;-41
2023/08/01 05:48:50;;;;;;;4.60;2.60;;;19.90;99.90;;;;;;5033835;28;20014;-41
2023/08/01 05:51:15;;;;;;;3.50;2.35;;;19.80;99.90;;;;;;5033903;28;20022;-40
2023/08/01 05:53:41;;;;;;;5.30;2.65;;;19.90;99.90;;;;;;5033864;28;20025;-42
2023/08/01 05:56:06;;;;;;;4.20;2.47;;;19.90;99.90;;;;;;5033934;28;20202;-41
2023/08/01 05:58:32;;;;;;;3.17;2.20;;;19.80;99.90;;;;;;5033804;28;20484;-41
2023/08/01 06:00:58;;;;;;;3.65;2.53;;;19.90;99.90;;;;;;5033627;28;20022;-41
2023/08/01 06:03:23;;;;;;;4.60;2.67;;;19.80;99.90;;;;;;5033694;28;20030;-43
2023/08/01 06:05:49;;;;;;;3.35;2.28;;;19.80;99.90;;;;;;5033763;28;20025;-41
2023/08/01 06:08:15;;;;;;;4.03;2.53;;;19.80;99.90;;;;;;5033552;28;20559;-40
2023/08/01 06:10:41;;;;;;;3.85;2.55;;;19.90;99.90;;;;;;5033409;28;20451;-44
2023/08/01 06:13:07;;;;;;;3.75;2.50;;;19.90;99.90;;;;;;5033655;28;20026;-41
2023/08/01 06:15:33;;;;;;;6.22;2.80;;;19.90;99.90;;;;;;5033648;28;20026;-41
2023/08/01 06:17:58;;;;;;;3.20;2.20;;;19.80;99.90;;;;;;5015597;28;20033;-42
2023/08/01 06:20:24;;;;;;;4.70;2.50;;;19.80;99.90;;;;;;5033331;28;20040;-42
2023/08/01 06:22:50;;;;;;;3.08;2.40;;;19.80;99.90;;;;;;5033339;28;20029;-40
2023/08/01 06:25:15;;;;;;;4.78;2.80;;;19.80;99.90;;;;;;5033313;28;20554;-41
2023/08/01 06:27:41;;;;;;;6.93;3.42;;;19.80;99.90;;;;;;5033371;28;20017;-40
2023/08/01 06:30:07;;;;;;;6.68;4.05;;;19.80;99.90;;;;;;5033003;28;20071;-41
2023/08/01 06:32:33;;;;;;;7.72;4.72;;;19.70;99.90;;;;;;5033146;28;20038;-42
2023/08/01 06:34:58;;;;;;;11.70;4.95;;;19.70;99.90;;;;;;5033203;28;20116;-44
2023/08/01 06:37:24;;;;;;;8.45;4.72;;;19.60;99.90;;;;;;5032977;28;20057;-42
2023/08/01 06:39:50;;;;;;;7.72;4.78;;;19.60;99.90;;;;;;5032839;28;20477;-41
2023/08/01 06:42:16;;;;;;;10.65;5.45;;;19.70;99.90;;;;;;5032244;28;20026;-43
2023/08/01 06:44:41;;;;;;;8.65;6.15;;;19.60;99.90;;;;;;5032958;28;20025;-41
2023/08/01 06:47:07;;;;;;;11.00;6.00;;;19.60;99.90;;;;;;5033007;28;20033;-41
2023/08/01 06:49:33;;;;;;;8.48;5.82;;;19.60;99.90;;;;;;5032702;28;20147;-42
2023/08/01 06:51:58;;;;;;;9.75;6.20;;;19.50;99.90;;;;;;5032830;28;20055;-41
2023/08/01 06:54:24;;;;;;;11.13;6.57;;;19.50;99.90;;;;;;5032715;28;20036;-42
2023/08/01 06:56:50;;;;;;;9.25;6.03;;;19.50;99.90;;;;;;5032796;28;20026;-42
2023/08/01 06:59:16;;;;;;;10.20;5.85;;;19.60;99.90;;;;;;5032490;28;20061;-41
2023/08/01 07:01:43;;;;;;;8.95;6.28;;;19.60;99.90;;;;;;5032596;28;20029;-42
2023/08/01 07:04:12;;;;;;;8.85;6.03;;;19.60;99.90;;;;;;5032624;28;20025;-41
2023/08/01 07:06:38;;;;;;;9.35;5.80;;;19.60;99.90;;;;;;5032443;28;20022;-42
2023/08/01 07:09:04;;;;;;;8.60;5.57;;;19.60;99.90;;;;;;5032221;28;20040;-42
2023/08/01 07:11:30;;;;;;;8.15;5.60;;;19.60;99.90;;;;;;5032663;28;20116;-41
2023/08/01 07:13:55;;;;;;;9.57;5.82;;;19.60;99.90;;;;;;5032468;28;20029;-41
2023/08/01 07:16:21;;;;;;;9.00;6.10;;;19.60;99.90;;;;;;5032524;28;20392;-42
2023/08/01 07:18:48;;;;;;;8.70;5.65;;;19.70;99.90;;;;;;5014353;28;20034;-41
2023/08/01 07:21:14;;;;;;;8.75;5.95;;;19.60;99.90;;;;;;5032190;28;20025;-39
2023/08/01 07:23:40;;;;;;;10.35;6.68;;;19.60;99.90;;;;;;5032742;28;20022;-39
2023/08/01 07:26:06;;;;;;;9.63;5.38;;;19.60;99.90;;;;;;5032309;28;20037;-40
2023/08/01 07:28:31;;;;;;;7.63;5.40;;;19.60;99.90;;;;;;5032193;28;20560;-42
2023/08/01 07:31:05;;;;;;;7.97;5.50;;;19.60;99.90;;;;;;5031974;28;20025;-42
2023/08/01 07:33:35;;;;;;;8.60;5.43;;;19.60;99.90;;;;;;5032099;28;20033;-42
2023/08/01 07:36:01;;;;;;;8.00;5.68;;;19.70;99.90;;;;;;5031914;28;20377;-43
2023/08/01 07:38:27;;;;;;;8.60;5.15;;;19.70;99.90;;;;;;5031898;28;20029;-40
2023/08/01 07:40:52;;;;;;;7.35;4.78;;;19.70;99.90;;;;;;5031872;28;20045;-39
2023/08/01 07:43:18;;;;;;;7.55;5.15;;;19.70;99.90;;;;;;5031798;28;20028;-43
2023/08/01 07:45:45;;;;;;;8.20;5.22;;;19.70;99.90;;;;;;5031893;28;20017;-41
2023/08/01 07:48:10;;;;;;;7.70;4.80;;;19.70;99.90;;;;;;5031749;28;20156;-41
2023/08/01 07:50:36;;;;;;;7.97;5.03;;;19.70;99.90;;;;;;5031359;28;20101;-42
2023/08/01 07:53:01;;;;;;;7.40;4.70;;;19.70;99.90;;;;;;5031681;28;20021;-39
2023/08/01 07:55:27;;;;;;;7.65;4.72;;;19.70;99.90;;;;;;5031891;28;20036;-41
2023/08/01 07:57:53;;;;;;;6.40;4.63;;;19.70;99.90;;;;;;5031579;28;20037;-41
2023/08/01 08:00:18;;;;;;;6.47;4.57;;;19.70;99.90;;;;;;5031437;28;20032;-42
2023/08/01 08:02:45;;;;;;;5.82;4.10;;;19.70;99.90;;;;;;5031494;28;20031;-41
2023/08/01 08:05:12;;;;;;;7.13;4.80;;;19.70;99.90;;;;;;5031325;28;20049;-42
2023/08/01 08:07:37;;;;;;;5.85;4.22;;;19.70;99.90;;;;;;5031763;28;20026;-40
2023/08/01 08:10:05;;;;;;;6.32;4.68;;;19.70;99.90;;;;;;5031193;28;20485;-43
2023/08/01 08:12:31;;;;;;;6.30;4.30;;;19.70;99.90;;;;;;5031435;28;20029;-41
2023/08/01 08:14:56;;;;;;;5.25;4.00;;;19.70;99.90;;;;;;5031366;28;20025;-41
2023/08/01 08:17:22;;;;;;;5.28;4.00;;;19.70;99.90;;;;;;5031357;28;20417;-41
2023/08/01 08:19:48;;;;;;;6.10;4.20;;;19.70;99.90;;;;;;5030846;28;20078;-39
2023/08/01 08:22:13;;;;;;;6.22;4.00;;;19.70;99.90;;;;;;5031554;28;20041;-41
2023/08/01 08:24:39;;;;;;;6.00;4.03;;;19.70;99.90;;;;;;5031437;28;20029;-40
2023/08/01 08:27:05;;;;;;;6.72;4.13;;;19.70;99.90;;;;;;5031310;28;20440;-43
2023/08/01 08:29:32;;;;;;;5.45;3.97;;;19.70;99.90;;;;;;5030948;28;20087;-41
2023/08/01 08:31:58;;;;;;;6.22;3.90;;;19.70;99.90;;;;;;5031172;28;20037;-41
2023/08/01 08:34:23;;;;;;;4.93;3.92;;;19.70;99.90;;;;;;5031034;28;20021;-39
2023/08/01 08:36:50;;;;;;;5.50;3.97;;;19.70;99.90;;;;;;5031250;28;20309;-42
2023/08/01 08:39:16;;;;;;;5.38;3.95;;;19.70;99.90;;;;;;5030792;28;20025;-41
2023/08/01 08:41:49;;;;;;;5.28;3.70;;;19.70;99.90;;;;;;5031086;28;20022;-42
2023/08/01 08:44:16;;;;;;;6.20;3.80;;;19.70;99.90;;;;;;5031170;28;20044;-41
2023/08/01 08:46:44;;;;;;;4.70;3.42;;;19.70;99.90;;;;;;5031039;28;20627;-41
2023/08/01 08:49:10;;;;;;;5.15;3.90;;;19.70;99.90;;;;;;5030736;28;20052;-40
2023/08/01 08:51:38;;;;;;;5.93;3.45;;;19.70;99.90;;;;;;5031132;28;20053;-44
2023/08/01 08:54:05;;;;;;;2.40;1.17;;;19.70;99.90;;;;;;5031336;28;20052;-42
2023/08/01 08:56:30;;;;;;;2.85;1.00;;;19.70;99.90;;;;;;5031045;28;20032;-40
2023/08/01 08:58:57;;;;;;;2.05;1.40;;;19.60;99.90;;;;;;5030801;28;20435;-42
2023/08/01 09:01:23;;;;;;;2.10;1.30;;;19.60;99.90;;;;;;5030842;28;20650;-43
2023/08/01 09:03:48;;;;;;;3.08;1.60;;;19.60;99.90;;;;;;5030943;28;20024;-39
2023/08/01 09:06:14;;;;;;;2.65;1.30;;;19.50;99.90;;;;;;5034332;28;20119;-40
2023/08/01 09:08:48;;;;;;;1.88;1.33;;;19.60;99.90;;;;;;5034749;28;20021;-42
2023/08/01 09:11:13;;;;;;;1.73;1.20;;;19.60;99.90;;;;;;5034837;28;20425;-42
2023/08/01 09:13:39;;;;;;;2.05;1.30;;;19.60;99.90;;;;;;5034696;28;20072;-41
2023/08/01 09:16:09;;;;;;;2.00;1.35;;;19.60;99.90;;;;;;5034625;28;20029;-39
2023/08/01 09:18:35;;;;;;;1.60;1.15;;;19.60;99.90;;;;;;5034569;28;20052;-41
2023/08/01 09:21:02;;;;;;;2.92;1.33;;;19.70;99.90;;;;;;5034470;28;20021;-42
2023/08/01 09:23:28;;;;;;;2.30;1.00;;;19.70;99.90;;;;;;5034480;28;20056;-42
2023/08/01 09:25:53;;;;;;;2.08;1.30;;;19.70;99.90;;;;;;5034549;28;20124;-41
2023/08/01 09:28:23;;;;;;;2.05;1.40;;;19.70;99.90;;;;;;5034320;28;20105;-42
2023/08/01 09:30:49;;;;;;;1.20;0.85;;;19.70;99.90;;;;;;5034478;28;20030;-42
2023/08/01 09:33:15;;;;;;;2.17;1.30;;;19.80;99.90;;;;;;5034473;28;20025;-40
2023/08/01 09:35:42;;;;;;;2.83;1.38;;;19.70;99.90;;;;;;5034390;28;20034;-42
2023/08/01 09:38:08;;;;;;;2.00;1.25;;;19.70;99.90;;;;;;5034268;28;20107;-40
2023/08/01 09:40:37;;;;;;;1.77;1.02;;;19.70;99.90;;;;;;5034063;28;20477;-42
2023/08/01 09:43:03;;;;;;;1.42;1.17;;;19.70;99.90;;;;;;5034127;28;20029;-41
2023/08/01 09:45:29;;;;;;;1.60;1.10;;;19.70;99.90;;;;;;5034228;28;20026;-43
2023/08/01 09:47:55;;;;;;;2.85;1.23;;;19.70;99.90;;;;;;5034038;28;20420;-41
2023/08/01 09:50:22;;;;;;;2.47;1.15;;;19.70;99.90;;;;;;5033895;28;20021;-41
2023/08/01 09:52:52;;;;;;;6.45;1.38;;;19.80;99.90;;;;;;5034348;28;20026;-41
2023/08/01 09:55:25;;;;;;;1.60;1.10;;;19.70;99.90;;;;;;5034210;28;20416;-40
2023/08/01 09:57:53;;;;;;;1.40;1.08;;;19.80;99.90;;;;;;5034034;28;20104;-41
2023/08/01 10:00:19;;;;;;;2.47;1.10;;;19.80;99.90;;;;;;5033751;28;20417;-44
2023/08/01 10:02:45;;;;;;;1.33;1.10;;;19.80;99.90;;;;;;5033808;28;20505;-43
2023/08/01 10:05:12;;;;;;;1.33;1.00;;;19.80;99.90;;;;;;5033982;28;20037;-43
2023/08/01 10:07:40;;;;;;;1.50;0.93;;;19.80;99.90;;;;;;5033797;28;20045;-42
2023/08/01 10:10:07;;;;;;;1.48;1.10;;;19.70;99.90;;;;;;5033318;28;20022;-43
2023/08/01 10:12:33;;;;;;;1.10;0.85;;;19.80;99.90;;;;;;5033636;28;20385;-43
2023/08/01 10:15:00;;;;;;;2.00;0.30;;;19.80;99.90;;;;;;5033607;28;20025;-43
2023/08/01 10:17:27;;;;;;;0.77;0.50;;;19.70;99.90;;;;;;5014575;28;20112;-43
2023/08/01 10:19:55;;;;;;;1.90;0.25;;;19.70;99.90;;;;;;5033154;28;20048;-42
2023/08/01 10:22:22;;;;;;;0.60;0.30;;;19.60;99.90;;;;;;5033438;28;20026;-42
2023/08/01 10:24:48;;;;;;;3.20;0.30;;;19.60;99.90;;;;;;5033339;28;20029;-39
2023/08/01 10:27:19;;;;;;;0.32;0.15;;;19.60;99.90;;;;;;5033385;28;20045;-40
2023/08/01 10:29:45;;;;;;;2.38;0.40;;;19.60;99.90;;;;;;5033053;28;20052;-43
2023/08/01 10:32:11;;;;;;;0.30;0.30;;;19.60;99.90;;;;;;5033326;28;20029;-41
2023/08/01 10:44:46;;;;;;;1.90;0.30;;;19.60;99.90;;;;;;5033433;28;20036;-43
2023/08/01 10:47:12;;;;;;;0.50;0.30;;;19.70;99.90;;;;;;5015197;28;20045;-42
2023/08/01 10:49:40;;;;;;;0.50;0.30;;;19.60;99.90;;;;;;5032621;28;20060;-42
2023/08/01 10:52:18;;;;;;;0.93;0.38;;;19.70;99.90;;;;;;5032920;28;20028;-42
2023/08/01 10:54:44;;;;;;;3.03;0.47;;;19.70;99.90;;;;;;5032847;28;20083;-43
2023/08/01 10:57:18;;;;;;;0.88;0.30;;;19.70;99.90;;;;;;5032853;28;20029;-42
2023/08/01 10:59:44;;;;;;;0.52;0.30;;;19.70;99.90;;;;;;5032555;28;20029;-43
2023/08/01 11:02:10;;;;;;;2.10;0.30;;;19.70;99.90;;;;;;5032562;28;20036;-42
2023/08/01 11:04:36;;;;;;;0.65;0.30;;;19.70;99.90;;;;;;5014881;28;20389;-42
2023/08/01 11:07:04;;;;;;;0.50;0.30;;;19.70;99.90;;;;;;5032726;28;20301;-43
2023/08/01 11:09:29;;;;;;;1.75;0.50;;;19.80;99.90;;;;;;5032251;28;20026;-42
2023/08/01 11:11:57;;;;;;;0.55;0.30;;;19.70;99.90;;;;;;5032662;28;20492;-41
2023/08/01 11:14:25;;;;;;;0.55;0.40;;;19.70;99.90;;;;;;5032496;28;20045;-42
2023/08/01 11:16:53;;;;;;;0.93;0.40;;;19.80;99.90;;;;;;5032862;28;20412;-44
2023/08/01 11:19:29;;;;;;;0.75;0.40;;;19.80;99.90;;;;;;5032142;28;20453;-42
2023/08/01 11:21:56;;;;;;;0.95;0.20;;;19.80;99.90;;;;;;5032277;28;20403;-41
2023/08/01 11:24:23;;;;;;;1.10;0.43;;;19.80;99.90;;;;;;5032290;28;20018;-41
2023/08/01 11:26:50;;;;;;;0.30;0.30;;;19.80;99.90;;;;;;5032270;28;20088;-41
2023/08/01 11:29:17;;;;;;;0.93;0.50;;;19.80;99.90;;;;;;5031501;28;20112;-43
2023/08/01 11:32:12;;;;;;;0.40;0.30;;;19.80;99.90;;;;;;5032092;28;20032;-42
2023/08/01 11:34:46;;;;;;;0.57;0.40;;;19.80;99.90;;;;;;5019098;28;20041;-41
2023/08/01 11:37:12;;;;;;;0.73;0.50;;;19.80;99.90;;;;;;5032115;28;20108;-42
2023/08/01 11:39:39;;;;;;;1.15;0.60;;;19.80;99.90;;;;;;5031649;28;20256;-42
2023/08/01 11:42:05;;;;;;;0.73;0.40;;;19.80;99.90;;;;;;5031904;28;20033;-41
2023/08/01 11:44:31;;;;;;;0.40;0.38;;;19.90;99.90;;;;;;5031912;28;20037;-41
2023/08/01 11:46:57;;;;;;;1.00;0.60;;;19.90;99.90;;;;;;5031813;28;20392;-42
2023/08/01 11:49:23;;;;;;;0.40;0.30;;;19.90;99.90;;;;;;5031574;28;20026;-42
2023/08/01 11:51:49;;;;;;;0.95;0.52;;;19.90;99.90;;;;;;5031833;28;20029;-42
2023/08/01 11:54:15;;;;;;;0.88;0.52;;;19.90;99.90;;;;;;5031634;28;20499;-41
2023/08/01 11:56:42;;;;;;;0.65;0.43;;;19.90;99.90;;;;;;5031714;28;20029;-42
2023/08/01 11:59:09;;;;;;;0.52;0.45;;;19.90;99.90;;;;;;5031311;28;20389;-42
2023/08/01 12:01:46;;;;;;;0.57;0.45;;;19.90;99.90;;;;;;5031559;28;20083;-41
2023/08/01 12:04:23;;;;;;;0.60;0.40;;;19.90;99.90;;;;;;5031651;28;20013;-41
2023/08/01 12:06:49;;;;;;;0.50;0.47;;;19.90;99.90;;;;;;5031557;28;20023;-41
2023/08/01 12:09:15;;;;;;;0.63;0.40;;;20.00;99.90;;;;;;5031272;28;20542;-41
2023/08/01 12:11:41;;;;;;;3.03;0.50;;;19.90;99.90;;;;;;5031533;28;20049;-42
2023/08/01 12:14:09;;;;;;;1.15;0.70;;;19.90;99.90;;;;;;5031584;28;20401;-45
2023/08/01 12:16:36;;;;;;;0.63;0.50;;;20.00;99.90;;;;;;5031955;28;20037;-42
2023/08/01 12:19:02;;;;;;;1.27;0.40;;;20.00;99.90;;;;;;5031072;28;20391;-42
2023/08/01 12:21:28;;;;;;;0.80;0.60;;;20.00;99.90;;;;;;5031193;28;20334;-41
2023/08/01 12:23:54;;;;;;;0.60;0.50;;;20.00;99.90;;;;;;5031339;28;20579;-42
2023/08/01 12:26:20;;;;;;;1.15;0.60;;;20.00;99.90;;;;;;5031402;28;20128;-42
2023/08/01 12:28:47;;;;;;;0.77;0.57;;;20.00;99.90;;;;;;5031424;28;20056;-42
2023/08/01 12:31:19;;;;;;;2.13;0.80;;;20.00;99.90;;;;;;5031359;28;20415;-39
2023/08/01 12:33:46;;;;;;;0.82;0.60;;;20.00;99.90;;;;;;5031146;28;20491;-41
2023/08/01 12:36:15;;;;;;;1.38;0.82;;;20.00;99.90;;;;;;5031238;28;20029;-41
2023/08/01 12:38:43;;;;;;;1.13;0.80;;;20.00;99.90;;;;;;5030879;28;20022;-42
2023/08/01 12:41:09;;;;;;;0.93;0.60;;;20.00;99.90;;;;;;5030625;28;20395;-42
2023/08/01 12:43:34;;;;;;;1.00;0.60;;;20.10;99.90;;;;;;5031438;28;20030;-42
2023/08/01 12:46:00;;;;;;;1.20;0.70;;;20.00;99.90;;;;;;5031114;28;20025;-41
2023/08/01 12:48:26;;;;;;;1.67;1.00;;;20.10;99.90;;;;;;5030940;28;20044;-42
2023/08/01 12:50:53;;;;;;;1.80;0.65;;;20.10;99.90;;;;;;5030852;28;20030;-39